createdAt,value
2018-06-10T00:01:38.588Z,15.10
2018-06-10T00:04:07.151Z,16.90
2018-06-10T00:06:35.719Z,16.90
2018-06-10T00:09:06.595Z,16.40
2018-06-10T00:11:35.303Z,17.27
2018-06-10T00:14:03.857Z,17.17
2018-06-10T00:16:32.487Z,18.20
2018-06-10T00:19:01.104Z,18.63
2018-06-10T00:21:29.636Z,18.37
2018-06-10T00:23:58.219Z,18.50
2018-06-10T00:26:26.774Z,18.93
2018-06-10T00:29:00.819Z,21.83
2018-06-10T00:31:29.822Z,19.67
2018-06-10T00:33:58.412Z,16.73
2018-06-10T00:36:27.054Z,16.30
2018-06-10T00:38:55.318Z,17.97
2018-06-10T00:41:23.921Z,18.60
2018-06-10T00:43:52.463Z,17.63
2018-06-10T00:46:21.083Z,18.23
2018-06-10T00:48:49.709Z,17.73
2018-06-10T00:51:18.293Z,17.43
2018-06-10T00:53:46.907Z,18.50
2018-06-10T00:56:26.674Z,19.57
2018-06-10T00:58:54.978Z,16.90
2018-06-10T01:01:23.622Z,16.80
2018-06-10T01:03:52.235Z,17.70
2018-06-10T01:06:20.821Z,17.40
2018-06-10T01:08:49.357Z,17.87
2018-06-10T01:11:18.005Z,17.53
2018-06-10T01:13:46.640Z,17.77
2018-06-10T01:16:15.324Z,19.30
2018-06-10T01:18:43.899Z,17.63
2018-06-10T01:21:12.616Z,15.00
2018-06-10T01:23:41.294Z,15.60
2018-06-10T01:26:09.959Z,16.37
2018-06-10T01:28:38.539Z,15.97
2018-06-10T01:31:07.156Z,15.77
2018-06-10T01:33:35.761Z,15.63
2018-06-10T01:36:04.351Z,16.90
2018-06-10T01:38:32.956Z,16.20
2018-06-10T01:41:01.548Z,16.20
2018-06-10T01:43:30.171Z,17.87
2018-06-10T01:45:59.460Z,18.20
2018-06-10T01:48:28.090Z,18.17
2018-06-10T01:50:56.692Z,17.37
2018-06-10T01:53:25.258Z,17.83
2018-06-10T01:55:53.824Z,18.93
2018-06-10T01:58:22.420Z,17.90
2018-06-10T02:00:51.005Z,16.37
2018-06-10T02:03:19.702Z,20.47
2018-06-10T02:05:48.327Z,18.33
2018-06-10T02:08:16.997Z,19.60
2018-06-10T02:10:45.743Z,18.80
2018-06-10T02:13:14.370Z,17.90
2018-06-10T02:15:42.983Z,18.07
2018-06-10T02:18:11.606Z,17.27
2018-06-10T02:20:40.217Z,16.20
2018-06-10T02:23:08.849Z,16.80
2018-06-10T02:25:37.524Z,17.67
2018-06-10T02:28:06.116Z,16.30
2018-06-10T02:30:34.858Z,16.30
2018-06-10T02:33:03.557Z,16.33
2018-06-10T02:35:32.235Z,17.43
2018-06-10T02:38:00.866Z,16.93
2018-06-10T02:40:29.501Z,16.70
2018-06-10T02:42:58.075Z,16.37
2018-06-10T02:45:26.675Z,18.60
2018-06-10T02:47:55.296Z,19.10
2018-06-10T02:50:23.525Z,16.20
2018-06-10T02:52:52.215Z,17.67
2018-06-10T02:55:20.786Z,17.13
2018-06-10T02:57:49.500Z,17.47
2018-06-10T03:00:18.075Z,19.47
2018-06-10T03:02:46.655Z,19.60
2018-06-10T03:05:15.259Z,19.90
2018-06-10T03:07:44.230Z,19.60
2018-06-10T03:10:12.895Z,22.07
2018-06-10T03:12:41.521Z,23.40
2018-06-10T03:15:10.102Z,20.27
2018-06-10T03:17:38.701Z,22.43
2018-06-10T03:20:07.278Z,26.93
2018-06-10T03:22:35.910Z,25.67
2018-06-10T03:25:04.588Z,23.83
2018-06-10T03:27:33.277Z,24.00
2018-06-10T03:30:02.129Z,26.30
2018-06-10T03:32:30.775Z,25.60
2018-06-10T03:34:59.373Z,28.80
2018-06-10T03:37:27.974Z,27.10
2018-06-10T03:39:56.705Z,27.60
2018-06-10T03:42:25.411Z,27.80
2018-06-10T03:44:54.099Z,30.83
2018-06-10T03:47:22.663Z,29.20
2018-06-10T03:49:51.268Z,28.90
2018-06-10T03:52:19.880Z,31.00
2018-06-10T03:54:48.509Z,31.70
2018-06-10T03:57:17.092Z,30.00
2018-06-10T03:59:45.720Z,31.03
2018-06-10T04:02:14.348Z,29.97
2018-06-10T04:04:42.916Z,31.37
2018-06-10T04:07:11.477Z,30.37
2018-06-10T04:09:40.051Z,31.73
2018-06-10T04:12:08.723Z,33.77
2018-06-10T04:14:37.402Z,31.53
2018-06-10T04:17:05.971Z,31.87
2018-06-10T04:19:35.553Z,32.57
2018-06-10T04:22:04.174Z,32.37
2018-06-10T04:24:32.816Z,33.23
2018-06-10T04:27:01.380Z,31.47
2018-06-10T04:29:29.987Z,32.70
2018-06-10T04:31:58.643Z,31.80
2018-06-10T04:34:27.273Z,31.40
2018-06-10T04:36:55.579Z,31.37
2018-06-10T04:39:24.198Z,31.33
2018-06-10T04:41:52.862Z,30.80
2018-06-10T04:44:21.521Z,33.60
2018-06-10T04:46:50.170Z,31.50
2018-06-10T04:49:18.857Z,32.57
2018-06-10T04:51:47.442Z,29.50
2018-06-10T04:54:16.120Z,31.80
2018-06-10T04:56:44.991Z,33.40
2018-06-10T04:59:13.681Z,32.43
2018-06-10T05:01:42.329Z,32.80
2018-06-10T05:04:10.922Z,32.30
2018-06-10T05:06:39.587Z,33.20
2018-06-10T05:09:08.149Z,34.30
2018-06-10T05:11:36.404Z,31.90
2018-06-10T05:14:05.003Z,32.80
2018-06-10T05:16:33.574Z,29.10
2018-06-10T05:19:02.240Z,35.10
2018-06-10T05:21:30.813Z,32.23
2018-06-10T05:23:59.474Z,34.10
2018-06-10T05:26:28.053Z,33.63
2018-06-10T05:28:56.683Z,32.17
2018-06-10T05:31:25.297Z,32.80
2018-06-10T05:33:53.882Z,33.43
2018-06-10T05:36:22.175Z,30.93
2018-06-10T05:38:50.735Z,32.50
2018-06-10T05:41:19.414Z,31.93
2018-06-10T05:43:48.041Z,31.13
2018-06-10T05:46:16.648Z,30.77
2018-06-10T05:48:45.406Z,30.50
2018-06-10T05:51:14.085Z,30.90
2018-06-10T05:53:42.782Z,31.00
2018-06-10T05:56:11.402Z,31.70
2018-06-10T05:58:40.951Z,29.23
2018-06-10T06:01:09.518Z,29.20
2018-06-10T06:03:38.101Z,27.70
2018-06-10T06:06:06.687Z,30.67
2018-06-10T06:08:35.303Z,29.43
2018-06-10T06:11:04.139Z,29.07
2018-06-10T06:13:32.780Z,31.60
2018-06-10T06:16:01.376Z,30.03
2018-06-10T06:18:30.020Z,30.93
2018-06-10T06:20:58.643Z,27.97
2018-06-10T06:23:27.242Z,28.20
2018-06-10T06:25:55.824Z,27.67
2018-06-10T06:28:24.457Z,30.23
2018-06-10T06:30:53.034Z,28.60
2018-06-10T06:33:21.671Z,27.10
2018-06-10T06:35:50.241Z,29.47
2018-06-10T06:38:18.819Z,26.27
2018-06-10T06:40:47.451Z,26.63
2018-06-10T06:43:16.163Z,27.63
2018-06-10T06:45:44.878Z,31.07
2018-06-10T06:48:13.474Z,27.70
2018-06-10T06:50:42.121Z,27.40
2018-06-10T06:53:10.820Z,29.13
2018-06-10T06:55:39.489Z,29.40
2018-06-10T06:58:08.212Z,31.40
2018-06-10T07:00:36.806Z,28.00
2018-06-10T07:03:05.451Z,30.07
2018-06-10T07:05:34.102Z,26.70
2018-06-10T07:08:02.746Z,29.70
2018-06-10T07:10:31.289Z,27.93
2018-06-10T07:12:59.868Z,26.83
2018-06-10T07:15:28.508Z,29.73
2018-06-10T07:17:57.090Z,25.00
2018-06-10T07:20:25.775Z,26.47
2018-06-10T07:22:54.456Z,25.83
2018-06-10T07:25:23.074Z,25.90
2018-06-10T07:27:51.813Z,26.13
2018-06-10T07:30:20.536Z,24.50
2018-06-10T07:32:49.102Z,23.30
2018-06-10T07:35:17.719Z,23.93
2018-06-10T07:37:46.336Z,25.03
2018-06-10T07:40:14.900Z,23.30
2018-06-10T07:42:43.539Z,23.20
2018-06-10T07:45:12.823Z,23.07
2018-06-10T07:47:41.471Z,20.60
2018-06-10T07:50:10.145Z,19.30
2018-06-10T07:52:38.768Z,20.63
2018-06-10T07:55:07.442Z,20.90
2018-06-10T07:57:36.307Z,19.43
2018-06-10T08:00:05.207Z,19.13
2018-06-10T08:02:33.851Z,21.00
2018-06-10T08:05:02.545Z,21.10
2018-06-10T08:07:31.193Z,19.20
2018-06-10T08:09:59.842Z,19.27
2018-06-10T08:12:28.451Z,19.97
2018-06-10T08:14:57.072Z,19.47
2018-06-10T08:17:25.697Z,18.50
2018-06-10T08:19:54.426Z,16.93
2018-06-10T08:22:23.038Z,16.93
2018-06-10T08:24:51.696Z,18.13
2018-06-10T08:27:20.337Z,17.33
2018-06-10T08:29:48.988Z,16.87
2018-06-10T08:32:17.683Z,15.00
2018-06-10T08:34:46.337Z,16.00
2018-06-10T08:37:14.967Z,17.87
2018-06-10T08:39:43.654Z,16.10
2018-06-10T08:42:12.350Z,15.63
2018-06-10T08:44:40.972Z,14.73
2018-06-10T08:47:09.609Z,15.20
2018-06-10T08:49:38.166Z,15.83
2018-06-10T08:52:07.035Z,16.50
2018-06-10T08:54:35.846Z,16.00
2018-06-10T08:57:04.504Z,16.13
2018-06-10T08:59:33.312Z,14.00
2018-06-10T09:02:02.050Z,17.70
2018-06-10T09:04:30.714Z,15.70
2018-06-10T09:06:59.883Z,14.07
2018-06-10T09:09:28.541Z,17.07
2018-06-10T09:11:57.163Z,16.53
2018-06-10T09:14:26.200Z,16.20
2018-06-10T09:16:54.475Z,15.97
2018-06-10T09:19:23.630Z,14.43
2018-06-10T09:21:52.367Z,14.83
2018-06-10T09:24:20.966Z,14.50
2018-06-10T09:26:49.500Z,16.57
2018-06-10T09:29:18.192Z,15.67
2018-06-10T09:31:46.787Z,14.90
2018-06-10T09:34:15.467Z,13.00
2018-06-10T09:36:44.092Z,13.13
2018-06-10T09:39:12.777Z,13.00
2018-06-10T09:41:41.480Z,12.43
2018-06-10T09:44:10.087Z,12.00
2018-06-10T09:46:38.780Z,12.40
2018-06-10T09:49:07.466Z,12.60
2018-06-10T09:51:36.128Z,11.13
2018-06-10T09:54:04.896Z,14.93
2018-06-10T09:56:33.552Z,16.90
2018-06-10T09:59:02.233Z,16.40
2018-06-10T10:01:30.805Z,17.50
2018-06-10T10:03:59.494Z,17.27
2018-06-10T10:06:28.154Z,18.57
2018-06-10T10:08:56.761Z,16.87
2018-06-10T10:11:25.435Z,18.17
2018-06-10T10:13:54.132Z,19.00
2018-06-10T10:16:22.810Z,17.60
2018-06-10T10:18:57.848Z,15.60
2018-06-10T10:21:26.470Z,14.60
2018-06-10T10:23:55.060Z,16.60
2018-06-10T10:26:23.670Z,14.97
2018-06-10T10:28:52.378Z,15.33
2018-06-10T10:31:21.006Z,17.67
2018-06-10T10:33:49.714Z,18.33
2018-06-10T10:36:18.461Z,19.80
2018-06-10T10:38:47.031Z,18.90
2018-06-10T10:41:15.932Z,21.30
2018-06-10T10:43:44.587Z,19.83
2018-06-10T10:46:13.911Z,18.43
2018-06-10T10:48:42.569Z,19.03
2018-06-10T10:51:11.569Z,19.10
2018-06-10T10:53:40.322Z,21.10
2018-06-10T10:56:09.059Z,19.97
2018-06-10T10:58:37.709Z,20.10
2018-06-10T11:01:06.385Z,19.50
2018-06-10T11:03:35.138Z,17.20
2018-06-10T11:06:03.957Z,18.30
2018-06-10T11:08:32.600Z,19.00
2018-06-10T11:11:01.256Z,17.10
2018-06-10T11:13:29.983Z,19.90
2018-06-10T11:15:58.624Z,19.40
2018-06-10T11:18:27.222Z,18.20
2018-06-10T11:20:55.922Z,18.13
2018-06-10T11:23:24.560Z,16.43
2018-06-10T11:25:56.108Z,18.63
2018-06-10T11:28:25.171Z,18.77
2018-06-10T11:30:53.815Z,17.63
2018-06-10T11:33:23.028Z,19.00
2018-06-10T11:35:53.084Z,20.43
2018-06-10T11:38:22.519Z,20.53
2018-06-10T11:40:51.091Z,18.53
2018-06-10T11:43:19.695Z,20.20
2018-06-10T11:45:48.345Z,22.67
2018-06-10T11:48:18.541Z,22.17
2018-06-10T11:50:48.325Z,21.80
2018-06-10T11:53:16.966Z,21.67
2018-06-10T11:55:45.550Z,23.80
2018-06-10T11:58:14.198Z,22.57
2018-06-10T12:00:42.834Z,20.87
2018-06-10T12:03:11.516Z,19.53
2018-06-10T12:05:40.146Z,25.10
2018-06-10T12:08:08.716Z,25.90
2018-06-10T12:10:39.222Z,30.07
2018-06-10T12:13:08.045Z,26.10
2018-06-10T12:15:38.847Z,26.17
2018-06-10T12:18:07.398Z,24.70
2018-06-10T12:20:36.025Z,23.90
2018-06-10T12:23:04.965Z,26.90
2018-06-10T12:25:33.596Z,27.07
2018-06-10T12:28:02.207Z,28.60
2018-06-10T12:30:30.847Z,25.90
2018-06-10T12:32:59.459Z,25.93
2018-06-10T12:35:28.093Z,21.87
2018-06-10T12:37:56.706Z,22.00
2018-06-10T12:40:25.370Z,19.50
2018-06-10T12:42:54.125Z,23.13
2018-06-10T12:45:22.765Z,25.93
2018-06-10T12:47:51.391Z,23.93
2018-06-10T12:50:20.030Z,23.33
2018-06-10T12:52:48.674Z,24.80
2018-06-10T12:55:17.259Z,21.57
2018-06-10T12:57:45.851Z,21.90
2018-06-10T13:00:14.407Z,20.40
2018-06-10T13:02:43.052Z,19.80
2018-06-10T13:05:11.652Z,17.40
2018-06-10T13:07:40.966Z,16.07
2018-06-10T13:10:09.650Z,18.40
2018-06-10T13:12:38.384Z,19.47
2018-06-10T13:15:06.952Z,18.87
2018-06-10T13:17:38.289Z,18.80
2018-06-10T13:20:07.293Z,19.83
2018-06-10T13:22:35.949Z,17.10
2018-06-10T13:25:04.962Z,17.87
2018-06-10T13:27:33.737Z,17.67
2018-06-10T13:30:01.986Z,16.57
2018-06-10T13:32:30.627Z,18.33
2018-06-10T13:34:59.289Z,15.87
2018-06-10T13:37:27.522Z,15.10
2018-06-10T13:39:56.185Z,15.83
2018-06-10T13:42:24.766Z,16.40
2018-06-10T13:44:53.379Z,15.63
2018-06-10T13:47:22.053Z,16.93
2018-06-10T13:49:50.686Z,17.30
2018-06-10T13:52:19.389Z,16.30
2018-06-10T13:54:48.040Z,16.43
2018-06-10T13:57:16.658Z,14.87
2018-06-10T13:59:45.274Z,15.47
2018-06-10T14:02:13.959Z,13.80
2018-06-10T14:04:42.797Z,13.80
2018-06-10T14:07:11.406Z,15.60
2018-06-10T14:09:40.039Z,13.30
2018-06-10T14:12:08.610Z,14.10
2018-06-10T14:14:37.264Z,13.43
2018-06-10T14:17:05.950Z,14.57
2018-06-10T14:19:34.615Z,14.70
2018-06-10T14:22:03.295Z,14.57
2018-06-10T14:24:31.979Z,14.43
2018-06-10T14:27:00.670Z,12.77
2018-06-10T14:29:29.346Z,13.03
2018-06-10T14:31:57.986Z,13.97
2018-06-10T14:34:27.345Z,14.80
2018-06-10T14:36:56.030Z,14.50
2018-06-10T14:39:24.804Z,15.37
2018-06-10T14:41:53.505Z,13.97
2018-06-10T14:44:22.156Z,13.90
2018-06-10T14:46:50.799Z,14.50
2018-06-10T14:49:19.463Z,13.83
2018-06-10T14:51:48.091Z,13.40
2018-06-10T14:54:16.711Z,11.50
2018-06-10T14:56:44.984Z,12.00
2018-06-10T14:59:13.267Z,14.00
2018-06-10T15:01:41.904Z,14.53
2018-06-10T15:04:10.542Z,10.63
2018-06-10T15:06:39.152Z,11.23
2018-06-10T15:09:09.228Z,12.10
2018-06-10T15:11:37.865Z,10.83
2018-06-10T15:14:06.540Z,12.67
2018-06-10T15:16:35.401Z,10.93
2018-06-10T15:19:04.101Z,11.37
2018-06-10T15:21:32.806Z,11.43
2018-06-10T15:24:01.605Z,11.40
2018-06-10T15:26:30.354Z,11.27
2018-06-10T15:28:58.989Z,11.70
2018-06-10T15:31:27.676Z,10.80
2018-06-10T15:33:56.287Z,10.80
2018-06-10T15:36:25.023Z,11.07
2018-06-10T15:38:53.623Z,9.80
2018-06-10T15:41:22.270Z,10.20
2018-06-10T15:43:50.605Z,9.80
2018-06-10T15:46:19.279Z,10.77
2018-06-10T15:48:47.941Z,11.73
2018-06-10T15:51:16.592Z,11.00
2018-06-10T15:53:45.213Z,10.60
2018-06-10T15:56:13.887Z,10.60
2018-06-10T15:58:42.508Z,11.10
2018-06-10T16:01:11.141Z,11.60
2018-06-10T16:03:39.786Z,11.33
2018-06-10T16:06:08.500Z,10.13
2018-06-10T16:08:37.157Z,8.73
2018-06-10T16:11:05.983Z,10.60
2018-06-10T16:13:34.672Z,9.07
2018-06-10T16:16:03.373Z,8.90
2018-06-10T16:18:32.156Z,10.10
2018-06-10T16:21:01.006Z,9.30
2018-06-10T16:23:29.768Z,8.40
2018-06-10T16:25:58.517Z,9.30
2018-06-10T16:28:27.170Z,8.50
2018-06-10T16:30:56.038Z,8.30
2018-06-10T16:33:24.650Z,8.30
2018-06-10T16:35:53.304Z,8.87
2018-06-10T16:38:22.332Z,7.93
2018-06-10T16:40:51.310Z,7.60
2018-06-10T16:43:19.942Z,7.63
2018-06-10T16:45:48.626Z,8.63
2018-06-10T16:48:17.384Z,9.40
2018-06-10T16:50:46.117Z,8.70
2018-06-10T16:53:14.895Z,7.80
2018-06-10T16:55:43.713Z,7.60
2018-06-10T16:58:12.314Z,7.20
2018-06-10T17:00:41.066Z,8.73
2018-06-10T17:03:09.676Z,7.83
2018-06-10T17:05:38.338Z,7.33
2018-06-10T17:08:07.547Z,8.13
2018-06-10T17:10:36.183Z,8.70
2018-06-10T17:13:04.932Z,7.67
2018-06-10T17:15:33.629Z,8.57
2018-06-10T17:18:02.274Z,8.27
2018-06-10T17:20:30.989Z,7.73
2018-06-10T17:22:59.717Z,7.60
2018-06-10T17:25:28.515Z,8.30
2018-06-10T17:27:57.160Z,8.90
2018-06-10T17:30:25.817Z,7.60
2018-06-10T17:32:54.451Z,7.40
2018-06-10T17:35:23.098Z,8.10
2018-06-10T17:37:51.742Z,7.53
2018-06-10T17:40:20.306Z,7.73
2018-06-10T17:42:48.926Z,9.13
2018-06-10T17:45:17.616Z,7.77
2018-06-10T17:47:46.229Z,9.47
2018-06-10T17:50:14.924Z,8.50
2018-06-10T17:52:43.610Z,10.10
2018-06-10T17:55:12.203Z,10.17
2018-06-10T17:57:40.799Z,9.20
2018-06-10T18:00:09.829Z,9.93
2018-06-10T18:02:38.777Z,10.43
2018-06-10T18:05:07.560Z,10.23
2018-06-10T18:07:36.184Z,10.80
2018-06-10T18:10:05.230Z,11.30
2018-06-10T18:12:33.963Z,11.10
2018-06-10T18:15:02.705Z,11.17
2018-06-10T18:17:31.327Z,12.37
2018-06-10T18:20:00.046Z,12.30
2018-06-10T18:22:28.681Z,13.50
2018-06-10T18:24:57.326Z,13.53
2018-06-10T18:27:25.978Z,12.97
2018-06-10T18:29:54.561Z,12.00
2018-06-10T18:32:23.681Z,13.80
2018-06-10T18:34:52.307Z,13.67
2018-06-10T18:37:21.336Z,12.80
2018-06-10T18:39:49.978Z,13.60
2018-06-10T18:42:18.576Z,14.00
2018-06-10T18:44:47.257Z,14.87
2018-06-10T18:47:15.913Z,14.23
2018-06-10T18:49:44.559Z,13.23
2018-06-10T18:52:13.137Z,13.83
2018-06-10T18:54:42.698Z,15.50
2018-06-10T18:57:11.590Z,15.10
2018-06-10T18:59:40.813Z,14.37
2018-06-10T19:02:10.266Z,15.50
2018-06-10T19:04:38.865Z,13.40
2018-06-10T19:07:07.247Z,15.60
2018-06-10T19:09:35.959Z,14.50
2018-06-10T19:12:04.749Z,14.50
2018-06-10T19:14:33.384Z,15.40
2018-06-10T19:17:02.116Z,15.73
2018-06-10T19:19:30.731Z,15.90
2018-06-10T19:22:00.036Z,15.80
2018-06-10T19:24:28.667Z,15.47
2018-06-10T19:26:57.304Z,16.13
2018-06-10T19:29:25.879Z,16.50
2018-06-10T19:31:54.549Z,18.03
2018-06-10T19:34:23.230Z,16.30
2018-06-10T19:36:51.867Z,16.67
2018-06-10T19:39:20.582Z,16.90
2018-06-10T19:41:49.292Z,16.00
2018-06-10T19:44:17.915Z,19.10
2018-06-10T19:46:46.712Z,18.20
2018-06-10T19:49:14.984Z,17.43
2018-06-10T19:51:43.698Z,16.37
2018-06-10T19:54:12.392Z,17.80
2018-06-10T19:56:41.120Z,17.97
2018-06-10T19:59:09.843Z,18.03
2018-06-10T20:01:38.482Z,16.23
2018-06-10T20:04:07.498Z,17.70
2018-06-10T20:06:36.198Z,17.57
2018-06-10T20:09:07.486Z,16.97
2018-06-10T20:11:36.160Z,17.13
2018-06-10T20:14:04.816Z,16.90
2018-06-10T20:16:33.487Z,17.17
2018-06-10T20:19:02.145Z,17.50
2018-06-10T20:21:30.773Z,16.07
2018-06-10T20:23:59.744Z,18.67
2018-06-10T20:26:28.343Z,18.30
2018-06-10T20:28:56.953Z,17.73
2018-06-10T20:31:25.293Z,19.20
2018-06-10T20:33:53.954Z,16.20
2018-06-10T20:36:22.600Z,17.53
2018-06-10T20:38:51.235Z,18.60
2018-06-10T20:41:19.827Z,19.57
2018-06-10T20:43:48.496Z,17.17
2018-06-10T20:46:17.148Z,18.40
2018-06-10T20:48:45.816Z,17.80
2018-06-10T20:51:14.476Z,19.23
2018-06-10T20:53:43.186Z,18.80
2018-06-10T20:56:11.751Z,17.43
2018-06-10T20:58:40.369Z,18.67
2018-06-10T21:01:08.896Z,19.27
2018-06-10T21:03:37.583Z,19.63
2018-06-10T21:06:06.290Z,20.70
2018-06-10T21:08:34.911Z,20.57
2018-06-10T21:11:03.566Z,22.03
2018-06-10T21:13:32.164Z,20.23
2018-06-10T21:16:00.832Z,21.27
2018-06-10T21:18:29.402Z,22.70
2018-06-10T21:20:58.016Z,21.70
2018-06-10T21:23:26.276Z,21.87
2018-06-10T21:25:54.880Z,22.37
2018-06-10T21:28:23.491Z,20.57
2018-06-10T21:30:52.109Z,22.43
2018-06-10T21:33:20.757Z,22.10
2018-06-10T21:35:49.371Z,20.33
2018-06-10T21:38:17.982Z,22.43
2018-06-10T21:40:46.551Z,22.00
2018-06-10T21:43:15.171Z,20.73
2018-06-10T21:45:43.833Z,21.10
2018-06-10T21:48:12.410Z,20.40
2018-06-10T21:50:41.066Z,18.87
2018-06-10T21:53:09.664Z,19.00
2018-06-10T21:55:38.311Z,20.47
2018-06-10T21:58:06.934Z,16.93
2018-06-10T22:00:35.650Z,19.53
2018-06-10T22:03:04.290Z,18.43
2018-06-10T22:05:32.865Z,17.40
2018-06-10T22:08:01.482Z,18.80
2018-06-10T22:10:30.041Z,19.10
2018-06-10T22:12:58.640Z,20.33
2018-06-10T22:15:27.295Z,19.20
2018-06-10T22:17:55.934Z,18.80
2018-06-10T22:20:24.626Z,19.97
2018-06-10T22:22:53.694Z,19.20
2018-06-10T22:25:22.301Z,20.20
2018-06-10T22:27:50.889Z,18.43
2018-06-10T22:30:19.526Z,17.10
2018-06-10T22:32:48.138Z,20.50
2018-06-10T22:35:16.762Z,18.90
2018-06-10T22:37:45.366Z,18.90
2018-06-10T22:40:13.945Z,18.63
2018-06-10T22:42:42.541Z,17.97
2018-06-10T22:45:11.218Z,19.20
2018-06-10T22:47:39.805Z,19.00
2018-06-10T22:50:08.387Z,19.30
2018-06-10T22:52:36.999Z,18.40
2018-06-10T22:55:05.588Z,18.07
2018-06-10T22:57:34.188Z,19.23
2018-06-10T23:00:02.834Z,18.97
2018-06-10T23:02:31.443Z,18.83
2018-06-10T23:04:59.995Z,20.00
2018-06-10T23:07:28.650Z,19.57
2018-06-10T23:09:57.254Z,18.27
2018-06-10T23:12:25.823Z,19.73
2018-06-10T23:14:54.555Z,20.60
2018-06-10T23:17:23.131Z,18.53
2018-06-10T23:19:51.682Z,18.43
2018-06-10T23:22:20.320Z,19.10
2018-06-10T23:24:48.923Z,18.90
2018-06-10T23:27:17.582Z,18.60
2018-06-10T23:29:46.204Z,17.40
2018-06-10T23:32:14.764Z,18.00
2018-06-10T23:34:43.408Z,17.47
2018-06-10T23:37:12.005Z,18.60
2018-06-10T23:39:40.595Z,20.20
2018-06-10T23:42:09.144Z,19.40
2018-06-10T23:44:37.723Z,19.27
2018-06-10T23:47:06.423Z,19.40
2018-06-10T23:49:35.096Z,18.10
2018-06-10T23:52:03.704Z,18.97
2018-06-10T23:54:32.399Z,19.33
2018-06-10T23:57:01.021Z,18.67
2018-06-10T23:59:29.571Z,17.50
